Time,TemperatureF,DewpointF,PressureIn,WindDirection,WindDirectionDegrees,WindSpeedMPH,WindSpeedGustMPH,Humidity,HourlyPrecipIn,Conditions,Clouds,dailyrainin,SoftwareType,DateUTC
2013-05-10 00:06:00,55.8,56.0,29.97,West,263,2.0,9.0,100,0.00,,,0.00,weatherlink.com 1.10,2013-05-10 04:06:00,
2013-05-10 00:21:00,55.3,55.0,29.97,SW,235,5.0,6.0,100,0.00,,,0.00,weatherlink.com 1.10,2013-05-10 04:21:00,
2013-05-10 00:36:00,53.9,54.0,29.97,West,273,1.0,4.0,99,0.00,,,0.00,weatherlink.com 1.10,2013-05-10 04:36:00,
2013-05-10 00:51:00,55.0,55.0,29.97,WNW,297,2.0,7.0,100,0.00,,,0.00,weatherlink.com 1.10,2013-05-10 04:51:00,
2013-05-10 01:06:00,54.7,55.0,29.97,West,278,0.0,5.0,100,0.00,,,0.00,weatherlink.com 1.10,2013-05-10 05:06:00,
2013-05-10 01:21:00,54.4,54.0,29.97,West,278,3.0,6.0,100,0.00,,,0.00,weatherlink.com 1.10,2013-05-10 05:21:00,
2013-05-10 01:36:00,54.4,54.0,29.97,WNW,284,2.0,3.0,100,0.00,,,0.00,weatherlink.com 1.10,2013-05-10 05:36:00,
2013-05-10 01:51:00,54.0,54.0,29.97,West,274,0.0,3.0,100,0.00,,,0.00,weatherlink.com 1.10,2013-05-10 05:51:00,
2013-05-10 02:06:00,53.7,54.0,29.97,WNW,283,0.0,2.0,100,0.00,,,0.00,weatherlink.com 1.10,2013-05-10 06:06:00,
2013-05-10 02:21:00,53.2,53.0,29.97,WSW,248,0.0,1.0,99,0.00,,,0.00,weatherlink.com 1.10,2013-05-10 06:21:00,
2013-05-10 02:36:00,52.9,53.0,29.96,West,267,0.0,0.0,100,0.00,,,0.00,weatherlink.com 1.10,2013-05-10 06:36:00,
2013-05-10 03:06:00,52.3,52.0,29.97,WSW,245,1.0,2.0,100,0.00,,,0.00,weatherlink.com 1.10,2013-05-10 07:06:00,
2013-05-10 03:21:00,52.1,52.0,29.97,West,263,1.0,2.0,100,0.00,,,0.00,weatherlink.com 1.10,2013-05-10 07:21:00,
2013-05-10 03:36:00,52.0,52.0,29.98,West,276,1.0,3.0,100,0.00,,,0.00,weatherlink.com 1.10,2013-05-10 07:36:00,
2013-05-10 03:51:00,52.4,52.0,29.98,WSW,253,1.0,2.0,100,0.00,,,0.00,weatherlink.com 1.10,2013-05-10 07:51:00,
2013-05-10 04:06:00,53.0,53.0,29.98,West,280,1.0,2.0,100,0.00,,,0.00,weatherlink.com 1.10,2013-05-10 08:06:00,
2013-05-10 04:21:00,53.4,53.0,29.98,West,262,2.0,4.0,100,0.00,,,0.00,weatherlink.com 1.10,2013-05-10 08:21:00,
2013-05-10 04:36:00,53.4,53.0,29.98,WNW,282,2.0,4.0,100,0.00,,,0.00,weatherlink.com 1.10,2013-05-10 08:36:00,
2013-05-10 04:51:00,53.3,53.0,29.99,West,266,2.0,5.0,100,0.00,,,0.00,weatherlink.com 1.10,2013-05-10 08:51:00,
2013-05-10 05:06:00,53.1,53.0,29.99,West,267,0.0,1.0,100,0.00,,,0.00,weatherlink.com 1.10,2013-05-10 09:06:00,
2013-05-10 05:21:00,52.7,53.0,29.99,WNW,298,1.0,3.0,100,0.00,,,0.00,weatherlink.com 1.10,2013-05-10 09:21:00,
2013-05-10 05:36:00,52.3,52.0,30.00,WSW,239,1.0,2.0,100,0.00,,,0.00,weatherlink.com 1.10,2013-05-10 09:36:00,
2013-05-10 05:51:00,51.6,52.0,30.00,West,260,4.0,5.0,100,0.01,,,0.01,weatherlink.com 1.10,2013-05-10 09:51:00,
2013-05-10 06:06:00,52.1,52.0,30.00,West,274,3.0,6.0,100,0.01,,,0.01,weatherlink.com 1.10,2013-05-10 10:06:00,
2013-05-10 06:21:00,52.8,53.0,30.01,West,277,5.0,7.0,100,0.01,,,0.01,weatherlink.com 1.10,2013-05-10 10:21:00,
2013-05-10 06:36:00,53.0,53.0,30.01,WSW,238,3.0,5.0,100,0.01,,,0.01,weatherlink.com 1.10,2013-05-10 10:36:00,
2013-05-10 06:51:00,53.1,53.0,30.01,WSW,245,1.0,4.0,100,0.00,,,0.01,weatherlink.com 1.10,2013-05-10 10:51:00,
2013-05-10 07:06:00,53.7,54.0,30.01,NNW,328,3.0,4.0,100,0.00,,,0.01,weatherlink.com 1.10,2013-05-10 11:06:00,
2013-05-10 07:21:00,54.8,55.0,30.01,West,276,1.0,2.0,100,0.00,,,0.01,weatherlink.com 1.10,2013-05-10 11:21:00,
2013-05-10 07:37:00,54.1,54.0,30.01,WSW,242,2.0,5.0,99,0.00,,,0.01,weatherlink.com 1.10,2013-05-10 11:37:00,
2013-05-10 07:52:00,55.0,55.0,30.02,WNW,287,1.0,6.0,99,0.00,,,0.01,weatherlink.com 1.10,2013-05-10 11:52:00,
2013-05-10 08:07:00,55.3,55.0,30.02,West,259,3.0,8.0,98,0.00,,,0.01,weatherlink.com 1.10,2013-05-10 12:07:00,
2013-05-10 08:22:00,55.7,56.0,30.02,West,268,6.0,9.0,99,0.00,,,0.01,weatherlink.com 1.10,2013-05-10 12:22:00,
2013-05-10 08:37:00,54.9,54.0,30.02,SW,232,5.0,10.0,98,0.00,,,0.01,weatherlink.com 1.10,2013-05-10 12:37:00,
2013-05-10 08:52:00,55.1,55.0,30.02,SSE,155,2.0,10.0,98,0.00,,,0.01,weatherlink.com 1.10,2013-05-10 12:52:00,
2013-05-10 09:07:00,55.9,55.0,30.03,WSW,256,4.0,8.0,98,0.00,,,0.01,weatherlink.com 1.10,2013-05-10 13:07:00,
2013-05-10 09:22:00,57.2,57.0,30.02,SW,225,4.0,8.0,98,0.00,,,0.01,weatherlink.com 1.10,2013-05-10 13:22:00,
2013-05-10 09:37:00,57.9,57.0,30.02,SW,217,7.0,9.0,96,0.00,,,0.01,weatherlink.com 1.10,2013-05-10 13:37:00,
2013-05-10 09:52:00,59.7,58.0,30.02,South,191,3.0,10.0,95,0.00,,,0.01,weatherlink.com 1.10,2013-05-10 13:52:00,
2013-05-10 10:07:00,61.5,59.0,30.02,WSW,243,3.0,11.0,91,0.00,,,0.01,weatherlink.com 1.10,2013-05-10 14:07:00,
2013-05-10 10:22:00,60.9,58.0,30.01,West,270,2.0,7.0,89,0.00,,,0.01,weatherlink.com 1.10,2013-05-10 14:22:00,
2013-05-10 10:37:00,63.1,59.0,30.01,West,278,6.0,11.0,85,0.00,,,0.01,weatherlink.com 1.10,2013-05-10 14:37:00,
2013-05-10 10:52:00,63.8,59.0,30.01,WSW,239,7.0,10.0,83,0.00,,,0.01,weatherlink.com 1.10,2013-05-10 14:52:00,
2013-05-10 11:07:00,63.5,58.0,30.02,SSW,208,7.0,8.0,81,0.00,,,0.01,weatherlink.com 1.10,2013-05-10 15:07:00,
2013-05-10 11:22:00,62.5,57.0,30.02,SW,226,3.0,8.0,83,0.00,,,0.01,weatherlink.com 1.10,2013-05-10 15:22:00,
2013-05-10 11:37:00,61.1,56.0,30.02,SSW,212,7.0,12.0,84,0.00,,,0.01,weatherlink.com 1.10,2013-05-10 15:37:00,
2013-05-10 11:52:00,61.4,57.0,30.02,SW,219,7.0,8.0,84,0.00,,,0.01,weatherlink.com 1.10,2013-05-10 15:52:00,
2013-05-10 12:07:00,63.7,57.0,30.01,SW,214,8.0,13.0,79,0.00,,,0.01,weatherlink.com 1.10,2013-05-10 16:07:00,
2013-05-10 12:22:00,62.8,56.0,30.00,SW,214,9.0,11.0,79,0.00,,,0.01,weatherlink.com 1.10,2013-05-10 16:22:00,
2013-05-10 12:37:00,64.2,57.0,30.00,SW,221,7.0,11.0,77,0.00,,,0.01,weatherlink.com 1.10,2013-05-10 16:37:00,
2013-05-10 12:53:00,64.7,58.0,30.00,SW,236,10.0,10.0,78,0.00,,,0.01,weatherlink.com 1.10,2013-05-10 16:53:00,
2013-05-10 13:07:00,65.6,58.0,30.00,West,262,9.0,12.0,75,0.00,,,0.01,weatherlink.com 1.10,2013-05-10 17:07:00,
2013-05-10 13:22:00,61.9,55.0,30.00,SW,228,5.0,12.0,79,0.00,,,0.01,weatherlink.com 1.10,2013-05-10 17:22:00,
2013-05-10 13:37:00,60.5,55.0,30.01,SSW,205,9.0,12.0,82,0.00,,,0.01,weatherlink.com 1.10,2013-05-10 17:37:00,
2013-05-10 13:52:00,59.5,55.0,30.01,SSE,158,2.0,9.0,85,0.00,,,0.01,weatherlink.com 1.10,2013-05-10 17:52:00,
2013-05-10 14:07:00,60.5,56.0,30.00,SW,236,5.0,11.0,84,0.00,,,0.01,weatherlink.com 1.10,2013-05-10 18:07:00,
2013-05-10 14:22:00,61.3,56.0,30.00,SE,145,4.0,11.0,82,0.00,,,0.01,weatherlink.com 1.10,2013-05-10 18:22:00,
2013-05-10 14:37:00,62.3,56.0,30.00,WSW,245,8.0,12.0,79,0.00,,,0.01,weatherlink.com 1.10,2013-05-10 18:37:00,
2013-05-10 14:52:00,63.3,56.0,30.00,SW,233,8.0,10.0,76,0.00,,,0.01,weatherlink.com 1.10,2013-05-10 18:52:00,
2013-05-10 15:07:00,63.9,54.0,30.00,West,278,8.0,12.0,71,0.00,,,0.01,weatherlink.com 1.10,2013-05-10 19:07:00,
2013-05-10 15:22:00,63.8,54.0,30.00,WSW,243,7.0,11.0,71,0.00,,,0.01,weatherlink.com 1.10,2013-05-10 19:22:00,
2013-05-10 15:37:00,64.3,55.0,30.00,West,259,6.0,12.0,71,0.00,,,0.01,weatherlink.com 1.10,2013-05-10 19:37:00,
2013-05-10 15:52:00,64.3,54.0,30.00,SW,228,7.0,13.0,69,0.00,,,0.01,weatherlink.com 1.10,2013-05-10 19:52:00,
2013-05-10 16:07:00,63.3,55.0,30.00,SW,217,7.0,11.0,73,0.00,,,0.01,weatherlink.com 1.10,2013-05-10 20:07:00,
2013-05-10 16:23:00,63.0,55.0,30.00,WSW,255,6.0,11.0,74,0.00,,,0.01,weatherlink.com 1.10,2013-05-10 20:23:00,
2013-05-10 16:38:00,62.2,55.0,29.99,West,267,3.0,7.0,76,0.00,,,0.01,weatherlink.com 1.10,2013-05-10 20:38:00,
2013-05-10 16:53:00,61.1,54.0,29.99,WSW,238,4.0,8.0,77,0.00,,,0.01,weatherlink.com 1.10,2013-05-10 20:53:00,
2013-05-10 17:08:00,60.6,54.0,30.00,WSW,245,4.0,7.0,79,0.00,,,0.01,weatherlink.com 1.10,2013-05-10 21:08:00,
2013-05-10 17:23:00,59.9,54.0,30.00,SW,232,3.0,10.0,80,0.00,,,0.01,weatherlink.com 1.10,2013-05-10 21:23:00,
2013-05-10 17:38:00,59.9,54.0,29.99,West,262,6.0,10.0,80,0.00,,,0.01,weatherlink.com 1.10,2013-05-10 21:38:00,
2013-05-10 17:53:00,59.6,54.0,29.99,WSW,252,8.0,10.0,82,0.00,,,0.01,weatherlink.com 1.10,2013-05-10 21:53:00,
2013-05-10 18:08:00,58.6,54.0,29.99,West,274,5.0,10.0,84,0.00,,,0.01,weatherlink.com 1.10,2013-05-10 22:08:00,
2013-05-10 18:23:00,58.2,54.0,29.98,WSW,242,6.0,11.0,85,0.00,,,0.01,weatherlink.com 1.10,2013-05-10 22:23:00,
2013-05-10 18:38:00,58.5,54.0,29.99,WSW,242,6.0,11.0,84,0.00,,,0.01,weatherlink.com 1.10,2013-05-10 22:38:00,
2013-05-10 18:53:00,58.4,54.0,30.00,West,277,4.0,10.0,85,0.00,,,0.01,weatherlink.com 1.10,2013-05-10 22:53:00,
2013-05-10 19:08:00,57.8,54.0,30.00,WSW,245,2.0,7.0,86,0.00,,,0.01,weatherlink.com 1.10,2013-05-10 23:08:00,
2013-05-10 19:23:00,57.2,54.0,30.01,SW,221,5.0,10.0,88,0.00,,,0.01,weatherlink.com 1.10,2013-05-10 23:23:00,
2013-05-10 19:38:00,57.3,54.0,30.01,WSW,243,9.0,12.0,88,0.00,,,0.01,weatherlink.com 1.10,2013-05-10 23:38:00,
2013-05-10 19:53:00,56.8,54.0,30.01,SW,236,7.0,9.0,89,0.00,,,0.01,weatherlink.com 1.10,2013-05-10 23:53:00,
2013-05-10 20:08:00,56.4,54.0,30.01,West,274,3.0,6.0,90,0.00,,,0.01,weatherlink.com 1.10,2013-05-11 00:08:00,
2013-05-10 20:23:00,56.0,54.0,30.02,WSW,248,4.0,7.0,91,0.00,,,0.01,weatherlink.com 1.10,2013-05-11 00:23:00,
2013-05-10 20:38:00,55.8,54.0,30.01,WSW,238,7.0,7.0,92,0.00,,,0.01,weatherlink.com 1.10,2013-05-11 00:38:00,
2013-05-10 20:53:00,55.7,54.0,30.01,West,263,3.0,8.0,92,0.00,,,0.01,weatherlink.com 1.10,2013-05-11 00:53:00,
2013-05-10 21:08:00,55.7,54.0,30.02,West,277,1.0,6.0,93,0.00,,,0.01,weatherlink.com 1.10,2013-05-11 01:08:00,
2013-05-10 21:23:00,55.7,54.0,30.02,SW,231,3.0,5.0,93,0.00,,,0.01,weatherlink.com 1.10,2013-05-11 01:23:00,
2013-05-10 21:38:00,55.5,54.0,30.02,West,263,3.0,4.0,93,0.00,,,0.01,weatherlink.com 1.10,2013-05-11 01:38:00,
2013-05-10 21:53:00,55.3,53.0,30.01,SW,233,0.0,3.0,93,0.00,,,0.01,weatherlink.com 1.10,2013-05-11 01:53:00,
2013-05-10 22:08:00,55.3,54.0,30.01,WSW,240,3.0,5.0,94,0.00,,,0.01,weatherlink.com 1.10,2013-05-11 02:08:00,
2013-05-10 22:23:00,55.4,54.0,30.01,West,266,1.0,5.0,94,0.00,,,0.01,weatherlink.com 1.10,2013-05-11 02:23:00,
2013-05-10 22:38:00,55.4,54.0,30.01,WSW,248,2.0,4.0,93,0.00,,,0.01,weatherlink.com 1.10,2013-05-11 02:38:00,
2013-05-10 22:53:00,55.3,54.0,30.01,SW,217,3.0,3.0,94,0.00,,,0.01,weatherlink.com 1.10,2013-05-11 02:53:00,
2013-05-10 23:08:00,55.1,54.0,30.01,SW,214,1.0,3.0,94,0.00,,,0.01,weatherlink.com 1.10,2013-05-11 03:08:00,
2013-05-10 23:23:00,55.1,54.0,30.00,SW,218,2.0,4.0,95,0.00,,,0.01,weatherlink.com 1.10,2013-05-11 03:23:00,
2013-05-10 23:38:00,55.0,54.0,30.00,SE,136,0.0,4.0,95,0.00,,,0.01,weatherlink.com 1.10,2013-05-11 03:38:00,
2013-05-10 23:53:00,55.1,54.0,30.00,South,191,4.0,6.0,96,0.00,,,0.01,weatherlink.com 1.10,2013-05-11 03:53:00,